sensor_id;sensor_type;location;lat;lon;timestamp;temperature;humidity
71291;DHT22;59073;51.994;4.448;2023-05-03T00:00:31;7.95;75.12
71291;DHT22;59073;51.994;4.448;2023-05-03T00:02:57;7.92;75.51
71291;DHT22;59073;51.994;4.448;2023-05-03T00:05:24;7.98;75.38
71291;DHT22;59073;51.994;4.448;2023-05-03T00:07:50;8.02;75.29
71291;DHT22;59073;51.994;4.448;2023-05-03T00:10:16;8.02;75.36
71291;DHT22;59073;51.994;4.448;2023-05-03T00:12:42;8.06;75.38
71291;DHT22;59073;51.994;4.448;2023-05-03T00:15:09;8.03;75.43
71291;DHT22;59073;51.994;4.448;2023-05-03T00:17:36;8.00;75.35
71291;DHT22;59073;51.994;4.448;2023-05-03T00:20:03;8.03;75.77
71291;DHT22;59073;51.994;4.448;2023-05-03T00:22:29;8.05;75.53
71291;DHT22;59073;51.994;4.448;2023-05-03T00:24:54;7.86;75.60
71291;DHT22;59073;51.994;4.448;2023-05-03T00:27:21;7.81;76.04
71291;DHT22;59073;51.994;4.448;2023-05-03T00:29:50;7.74;76.03
71291;DHT22;59073;51.994;4.448;2023-05-03T00:32:17;7.64;77.03
71291;DHT22;59073;51.994;4.448;2023-05-03T00:34:42;7.68;76.79
71291;DHT22;59073;51.994;4.448;2023-05-03T00:37:08;7.74;77.09
71291;DHT22;59073;51.994;4.448;2023-05-03T00:39:34;7.65;77.17
71291;DHT22;59073;51.994;4.448;2023-05-03T00:42:00;7.65;77.93
71291;DHT22;59073;51.994;4.448;2023-05-03T00:44:26;7.59;77.76
71291;DHT22;59073;51.994;4.448;2023-05-03T00:46:53;7.52;77.92
71291;DHT22;59073;51.994;4.448;2023-05-03T00:49:20;7.57;78.30
71291;DHT22;59073;51.994;4.448;2023-05-03T00:51:46;7.58;78.15
71291;DHT22;59073;51.994;4.448;2023-05-03T00:54:12;7.50;78.18
71291;DHT22;59073;51.994;4.448;2023-05-03T00:56:38;7.57;78.23
71291;DHT22;59073;51.994;4.448;2023-05-03T00:59:07;7.57;78.10
71291;DHT22;59073;51.994;4.448;2023-05-03T01:01:32;7.45;78.06
71291;DHT22;59073;51.994;4.448;2023-05-03T01:04:02;7.30;78.62
71291;DHT22;59073;51.994;4.448;2023-05-03T01:17:13;7.14;77.85
71291;DHT22;59073;51.994;4.448;2023-05-03T01:19:52;7.18;77.74
71291;DHT22;59073;51.994;4.448;2023-05-03T01:22:21;7.13;77.87
71291;DHT22;59073;51.994;4.448;2023-05-03T01:25:12;7.14;77.59
71291;DHT22;59073;51.994;4.448;2023-05-03T01:27:40;7.20;77.47
71291;DHT22;59073;51.994;4.448;2023-05-03T01:30:08;7.14;77.33
71291;DHT22;59073;51.994;4.448;2023-05-03T01:32:55;7.11;77.77
71291;DHT22;59073;51.994;4.448;2023-05-03T01:35:28;7.24;77.43
71291;DHT22;59073;51.994;4.448;2023-05-03T01:37:56;7.16;77.69
71291;DHT22;59073;51.994;4.448;2023-05-03T01:40:22;6.96;79.50
71291;DHT22;59073;51.994;4.448;2023-05-03T01:42:49;7.00;79.45
71291;DHT22;59073;51.994;4.448;2023-05-03T01:45:17;7.11;78.73
71291;DHT22;59073;51.994;4.448;2023-05-03T01:47:42;7.17;78.39
71291;DHT22;59073;51.994;4.448;2023-05-03T01:50:08;6.92;78.93
71291;DHT22;59073;51.994;4.448;2023-05-03T01:52:33;6.89;79.55
71291;DHT22;59073;51.994;4.448;2023-05-03T01:54:59;6.79;79.79
71291;DHT22;59073;51.994;4.448;2023-05-03T01:57:24;6.85;79.73
71291;DHT22;59073;51.994;4.448;2023-05-03T01:59:50;6.66;79.73
71291;DHT22;59073;51.994;4.448;2023-05-03T02:02:15;6.58;79.97
71291;DHT22;59073;51.994;4.448;2023-05-03T02:04:40;6.29;80.69
71291;DHT22;59073;51.994;4.448;2023-05-03T02:07:06;6.50;79.61
71291;DHT22;59073;51.994;4.448;2023-05-03T02:09:32;6.53;79.25
71291;DHT22;59073;51.994;4.448;2023-05-03T02:11:57;6.48;79.68
71291;DHT22;59073;51.994;4.448;2023-05-03T02:14:23;6.59;79.54
71291;DHT22;59073;51.994;4.448;2023-05-03T02:16:49;6.66;79.17
71291;DHT22;59073;51.994;4.448;2023-05-03T02:19:14;6.77;78.72
71291;DHT22;59073;51.994;4.448;2023-05-03T02:21:40;6.95;78.24
71291;DHT22;59073;51.994;4.448;2023-05-03T02:24:05;6.80;78.72
71291;DHT22;59073;51.994;4.448;2023-05-03T02:26:31;6.80;78.47
71291;DHT22;59073;51.994;4.448;2023-05-03T02:28:56;6.83;78.57
71291;DHT22;59073;51.994;4.448;2023-05-03T02:31:23;6.92;78.05
71291;DHT22;59073;51.994;4.448;2023-05-03T02:33:49;6.92;77.69
71291;DHT22;59073;51.994;4.448;2023-05-03T02:36:14;6.97;77.39
71291;DHT22;59073;51.994;4.448;2023-05-03T02:38:40;7.03;77.33
71291;DHT22;59073;51.994;4.448;2023-05-03T02:41:05;7.06;77.28
71291;DHT22;59073;51.994;4.448;2023-05-03T02:43:30;7.11;77.15
71291;DHT22;59073;51.994;4.448;2023-05-03T02:45:56;7.14;76.88
71291;DHT22;59073;51.994;4.448;2023-05-03T02:48:21;7.10;76.77
71291;DHT22;59073;51.994;4.448;2023-05-03T02:50:47;7.10;76.70
71291;DHT22;59073;51.994;4.448;2023-05-03T02:53:12;7.16;76.56
71291;DHT22;59073;51.994;4.448;2023-05-03T02:55:38;7.17;76.71
71291;DHT22;59073;51.994;4.448;2023-05-03T02:58:04;7.06;77.02
71291;DHT22;59073;51.994;4.448;2023-05-03T03:00:29;6.97;77.70
71291;DHT22;59073;51.994;4.448;2023-05-03T03:02:54;7.06;77.34
71291;DHT22;59073;51.994;4.448;2023-05-03T03:05:20;7.13;76.86
71291;DHT22;59073;51.994;4.448;2023-05-03T03:07:46;7.13;76.97
71291;DHT22;59073;51.994;4.448;2023-05-03T03:10:11;6.90;77.55
71291;DHT22;59073;51.994;4.448;2023-05-03T03:12:37;6.87;78.62
71291;DHT22;59073;51.994;4.448;2023-05-03T03:15:02;6.99;78.64
71291;DHT22;59073;51.994;4.448;2023-05-03T03:17:28;6.96;78.25
71291;DHT22;59073;51.994;4.448;2023-05-03T03:19:54;6.99;77.47
71291;DHT22;59073;51.994;4.448;2023-05-03T03:22:19;6.97;77.03
71291;DHT22;59073;51.994;4.448;2023-05-03T03:24:45;6.90;77.22
71291;DHT22;59073;51.994;4.448;2023-05-03T03:27:10;6.90;77.21
71291;DHT22;59073;51.994;4.448;2023-05-03T03:29:36;6.99;77.37
71291;DHT22;59073;51.994;4.448;2023-05-03T03:32:01;6.95;77.34
71291;DHT22;59073;51.994;4.448;2023-05-03T03:34:27;6.89;77.71
71291;DHT22;59073;51.994;4.448;2023-05-03T03:36:52;6.95;77.55
71291;DHT22;59073;51.994;4.448;2023-05-03T03:39:18;7.00;77.40
71291;DHT22;59073;51.994;4.448;2023-05-03T03:41:43;6.96;77.11
71291;DHT22;59073;51.994;4.448;2023-05-03T03:44:09;6.92;77.21
71291;DHT22;59073;51.994;4.448;2023-05-03T03:46:34;6.90;77.25
71291;DHT22;59073;51.994;4.448;2023-05-03T03:48:59;6.96;77.11
71291;DHT22;59073;51.994;4.448;2023-05-03T03:51:25;6.99;77.41
71291;DHT22;59073;51.994;4.448;2023-05-03T03:53:51;6.83;78.07
71291;DHT22;59073;51.994;4.448;2023-05-03T03:56:17;6.89;78.53
71291;DHT22;59073;51.994;4.448;2023-05-03T03:58:42;6.90;78.54
71291;DHT22;59073;51.994;4.448;2023-05-03T04:01:08;6.89;78.74
71291;DHT22;59073;51.994;4.448;2023-05-03T04:03:33;7.00;78.79
71291;DHT22;59073;51.994;4.448;2023-05-03T04:05:59;7.00;78.41
71291;DHT22;59073;51.994;4.448;2023-05-03T04:08:24;6.99;78.48
71291;DHT22;59073;51.994;4.448;2023-05-03T04:10:50;6.97;79.04
71291;DHT22;59073;51.994;4.448;2023-05-03T04:13:15;7.03;78.95
71291;DHT22;59073;51.994;4.448;2023-05-03T04:15:41;7.16;78.29
71291;DHT22;59073;51.994;4.448;2023-05-03T04:18:06;7.24;77.88
71291;DHT22;59073;51.994;4.448;2023-05-03T04:20:33;7.26;77.24
71291;DHT22;59073;51.994;4.448;2023-05-03T04:22:58;7.17;77.52
71291;DHT22;59073;51.994;4.448;2023-05-03T04:25:24;7.27;77.10
71291;DHT22;59073;51.994;4.448;2023-05-03T04:27:50;7.41;76.85
71291;DHT22;59073;51.994;4.448;2023-05-03T04:30:16;7.55;76.50
71291;DHT22;59073;51.994;4.448;2023-05-03T04:32:42;7.85;75.58
71291;DHT22;59073;51.994;4.448;2023-05-03T04:35:09;8.27;74.00
71291;DHT22;59073;51.994;4.448;2023-05-03T04:37:39;8.64;72.36
71291;DHT22;59073;51.994;4.448;2023-05-03T04:40:05;8.78;71.51
71291;DHT22;59073;51.994;4.448;2023-05-03T04:42:32;9.25;70.49
71291;DHT22;59073;51.994;4.448;2023-05-03T04:44:58;9.29;69.72
71291;DHT22;59073;51.994;4.448;2023-05-03T04:47:23;9.42;69.23
71291;DHT22;59073;51.994;4.448;2023-05-03T04:49:50;9.86;67.84
71291;DHT22;59073;51.994;4.448;2023-05-03T04:52:15;10.17;65.93
71291;DHT22;59073;51.994;4.448;2023-05-03T04:54:41;10.34;64.97
71291;DHT22;59073;51.994;4.448;2023-05-03T04:57:06;10.65;64.45
71291;DHT22;59073;51.994;4.448;2023-05-03T04:59:34;10.89;63.81
71291;DHT22;59073;51.994;4.448;2023-05-03T05:02:00;11.50;61.89
71291;DHT22;59073;51.994;4.448;2023-05-03T05:04:25;11.64;61.22
71291;DHT22;59073;51.994;4.448;2023-05-03T05:06:52;11.78;59.89
71291;DHT22;59073;51.994;4.448;2023-05-03T05:09:24;12.00;61.37
71291;DHT22;59073;51.994;4.448;2023-05-03T05:11:50;12.15;59.44
71291;DHT22;59073;51.994;4.448;2023-05-03T05:14:16;11.99;60.10
71291;DHT22;59073;51.994;4.448;2023-05-03T05:16:41;11.28;61.73
71291;DHT22;59073;51.994;4.448;2023-05-03T05:19:07;11.48;63.41
71291;DHT22;59073;51.994;4.448;2023-05-03T05:21:33;11.89;60.96
71291;DHT22;59073;51.994;4.448;2023-05-03T05:23:59;11.88;60.81
71291;DHT22;59073;51.994;4.448;2023-05-03T05:26:26;12.20;60.44
71291;DHT22;59073;51.994;4.448;2023-05-03T05:28:52;12.37;58.99
71291;DHT22;59073;51.994;4.448;2023-05-03T05:31:17;12.74;58.44
71291;DHT22;59073;51.994;4.448;2023-05-03T05:33:43;12.41;59.25
71291;DHT22;59073;51.994;4.448;2023-05-03T05:36:09;11.86;59.22
71291;DHT22;59073;51.994;4.448;2023-05-03T05:38:35;12.32;58.53
71291;DHT22;59073;51.994;4.448;2023-05-03T05:41:01;12.91;57.60
71291;DHT22;59073;51.994;4.448;2023-05-03T05:43:27;12.90;57.60
71291;DHT22;59073;51.994;4.448;2023-05-03T05:45:52;13.77;55.86
71291;DHT22;59073;51.994;4.448;2023-05-03T05:48:17;14.49;52.26
71291;DHT22;59073;51.994;4.448;2023-05-03T05:50:43;14.76;52.02
71291;DHT22;59073;51.994;4.448;2023-05-03T05:53:09;13.50;55.65
71291;DHT22;59073;51.994;4.448;2023-05-03T05:55:35;12.43;57.24
71291;DHT22;59073;51.994;4.448;2023-05-03T05:58:00;12.61;58.14
71291;DHT22;59073;51.994;4.448;2023-05-03T06:00:25;12.78;57.92
71291;DHT22;59073;51.994;4.448;2023-05-03T06:02:51;11.51;60.36
71291;DHT22;59073;51.994;4.448;2023-05-03T06:05:17;11.27;60.15
71291;DHT22;59073;51.994;4.448;2023-05-03T06:07:42;11.27;61.38
71291;DHT22;59073;51.994;4.448;2023-05-03T06:10:08;11.42;61.72
71291;DHT22;59073;51.994;4.448;2023-05-03T06:12:33;11.30;60.57
71291;DHT22;59073;51.994;4.448;2023-05-03T06:14:59;11.34;60.95
71291;DHT22;59073;51.994;4.448;2023-05-03T06:17:24;11.09;60.37
71291;DHT22;59073;51.994;4.448;2023-05-03T06:19:51;11.91;58.55
71291;DHT22;59073;51.994;4.448;2023-05-03T06:22:17;11.77;59.08
71291;DHT22;59073;51.994;4.448;2023-05-03T06:24:42;11.10;59.52
71291;DHT22;59073;51.994;4.448;2023-05-03T06:27:07;11.55;59.73
71291;DHT22;59073;51.994;4.448;2023-05-03T06:29:33;11.48;57.59
71291;DHT22;59073;51.994;4.448;2023-05-03T06:31:58;10.76;60.47
71291;DHT22;59073;51.994;4.448;2023-05-03T06:34:25;10.88;61.21
71291;DHT22;59073;51.994;4.448;2023-05-03T06:36:50;10.44;59.92
71291;DHT22;59073;51.994;4.448;2023-05-03T06:39:16;10.34;60.68
71291;DHT22;59073;51.994;4.448;2023-05-03T06:41:43;10.25;60.34
71291;DHT22;59073;51.994;4.448;2023-05-03T06:44:08;11.17;61.35
71291;DHT22;59073;51.994;4.448;2023-05-03T06:46:34;11.27;60.46
71291;DHT22;59073;51.994;4.448;2023-05-03T06:48:59;10.75;61.77
71291;DHT22;59073;51.994;4.448;2023-05-03T06:51:26;10.46;61.07
71291;DHT22;59073;51.994;4.448;2023-05-03T06:53:54;10.08;62.00
71291;DHT22;59073;51.994;4.448;2023-05-03T06:56:25;10.27;62.03
71291;DHT22;59073;51.994;4.448;2023-05-03T06:58:52;9.90;62.71
71291;DHT22;59073;51.994;4.448;2023-05-03T07:01:17;9.63;62.08
71291;DHT22;59073;51.994;4.448;2023-05-03T07:03:45;9.53;63.39
71291;DHT22;59073;51.994;4.448;2023-05-03T07:06:11;9.88;63.98
71291;DHT22;59073;51.994;4.448;2023-05-03T07:08:36;9.63;63.23
71291;DHT22;59073;51.994;4.448;2023-05-03T07:11:01;9.77;62.13
71291;DHT22;59073;51.994;4.448;2023-05-03T07:13:28;9.79;63.63
71291;DHT22;59073;51.994;4.448;2023-05-03T07:15:54;10.07;63.78
71291;DHT22;59073;51.994;4.448;2023-05-03T07:18:19;9.91;63.53
71291;DHT22;59073;51.994;4.448;2023-05-03T07:20:45;9.91;62.13
71291;DHT22;59073;51.994;4.448;2023-05-03T07:23:10;10.04;65.50
71291;DHT22;59073;51.994;4.448;2023-05-03T07:25:36;10.37;61.21
71291;DHT22;59073;51.994;4.448;2023-05-03T07:28:03;10.62;63.39
71291;DHT22;59073;51.994;4.448;2023-05-03T07:30:29;10.24;61.81
71291;DHT22;59073;51.994;4.448;2023-05-03T07:32:55;10.69;61.04
71291;DHT22;59073;51.994;4.448;2023-05-03T07:35:20;10.84;61.34
71291;DHT22;59073;51.994;4.448;2023-05-03T07:37:47;10.80;62.16
71291;DHT22;59073;51.994;4.448;2023-05-03T07:40:13;10.56;63.29
71291;DHT22;59073;51.994;4.448;2023-05-03T07:42:38;10.79;61.68
71291;DHT22;59073;51.994;4.448;2023-05-03T07:45:04;10.89;62.18
71291;DHT22;59073;51.994;4.448;2023-05-03T07:47:30;10.66;61.57
71291;DHT22;59073;51.994;4.448;2023-05-03T07:49:56;10.62;64.59
71291;DHT22;59073;51.994;4.448;2023-05-03T07:52:22;10.79;63.14
71291;DHT22;59073;51.994;4.448;2023-05-03T07:54:47;10.75;63.18
71291;DHT22;59073;51.994;4.448;2023-05-03T07:57:14;10.68;62.22
71291;DHT22;59073;51.994;4.448;2023-05-03T07:59:41;11.21;61.35
71291;DHT22;59073;51.994;4.448;2023-05-03T08:02:07;11.35;59.64
71291;DHT22;59073;51.994;4.448;2023-05-03T08:04:33;11.26;59.18
71291;DHT22;59073;51.994;4.448;2023-05-03T08:07:01;10.95;62.03
71291;DHT22;59073;51.994;4.448;2023-05-03T08:09:28;10.92;59.92
71291;DHT22;59073;51.994;4.448;2023-05-03T08:11:55;11.07;60.71
71291;DHT22;59073;51.994;4.448;2023-05-03T08:14:21;11.30;60.42
71291;DHT22;59073;51.994;4.448;2023-05-03T08:16:47;11.28;60.14
71291;DHT22;59073;51.994;4.448;2023-05-03T08:19:13;11.51;59.93
71291;DHT22;59073;51.994;4.448;2023-05-03T08:21:38;11.72;59.95
71291;DHT22;59073;51.994;4.448;2023-05-03T08:24:04;11.51;58.77
71291;DHT22;59073;51.994;4.448;2023-05-03T08:26:34;11.62;58.33
71291;DHT22;59073;51.994;4.448;2023-05-03T08:28:59;11.13;58.66
71291;DHT22;59073;51.994;4.448;2023-05-03T08:31:27;11.09;60.72
71291;DHT22;59073;51.994;4.448;2023-05-03T08:33:53;11.30;61.76
71291;DHT22;59073;51.994;4.448;2023-05-03T08:36:18;11.93;59.24
71291;DHT22;59073;51.994;4.448;2023-05-03T08:38:43;12.18;57.20
71291;DHT22;59073;51.994;4.448;2023-05-03T08:41:27;12.12;59.54
71291;DHT22;59073;51.994;4.448;2023-05-03T08:43:54;11.99;57.76
71291;DHT22;59073;51.994;4.448;2023-05-03T08:46:20;11.96;58.96
71291;DHT22;59073;51.994;4.448;2023-05-03T08:48:50;11.83;59.21
71291;DHT22;59073;51.994;4.448;2023-05-03T08:51:17;11.82;59.04
71291;DHT22;59073;51.994;4.448;2023-05-03T08:53:45;12.02;58.16
71291;DHT22;59073;51.994;4.448;2023-05-03T08:56:12;12.59;56.37
71291;DHT22;59073;51.994;4.448;2023-05-03T08:58:40;12.15;59.46
71291;DHT22;59073;51.994;4.448;2023-05-03T09:01:08;12.61;58.59
71291;DHT22;59073;51.994;4.448;2023-05-03T09:03:35;12.49;60.10
71291;DHT22;59073;51.994;4.448;2023-05-03T09:06:02;11.77;59.54
71291;DHT22;59073;51.994;4.448;2023-05-03T09:08:28;12.19;58.53
71291;DHT22;59073;51.994;4.448;2023-05-03T09:10:54;12.60;55.75
71291;DHT22;59073;51.994;4.448;2023-05-03T09:13:20;12.12;58.16
71291;DHT22;59073;51.994;4.448;2023-05-03T09:15:53;12.43;58.06
71291;DHT22;59073;51.994;4.448;2023-05-03T09:18:19;12.49;60.00
71291;DHT22;59073;51.994;4.448;2023-05-03T09:20:47;12.10;58.75
71291;DHT22;59073;51.994;4.448;2023-05-03T09:23:29;11.92;58.34
71291;DHT22;59073;51.994;4.448;2023-05-03T09:25:56;11.60;59.65
71291;DHT22;59073;51.994;4.448;2023-05-03T09:28:22;11.44;58.29
71291;DHT22;59073;51.994;4.448;2023-05-03T09:30:49;11.75;58.68
71291;DHT22;59073;51.994;4.448;2023-05-03T09:33:15;12.28;58.66
71291;DHT22;59073;51.994;4.448;2023-05-03T09:36:01;11.98;57.32
71291;DHT22;59073;51.994;4.448;2023-05-03T09:38:29;12.25;60.00
71291;DHT22;59073;51.994;4.448;2023-05-03T09:40:55;12.34;57.90
71291;DHT22;59073;51.994;4.448;2023-05-03T09:43:21;12.32;57.75
71291;DHT22;59073;51.994;4.448;2023-05-03T09:45:46;12.64;56.91
71291;DHT22;59073;51.994;4.448;2023-05-03T09:48:12;12.49;56.63
71291;DHT22;59073;51.994;4.448;2023-05-03T09:50:38;12.57;57.04
71291;DHT22;59073;51.994;4.448;2023-05-03T09:53:05;12.57;56.89
71291;DHT22;59073;51.994;4.448;2023-05-03T09:55:37;12.76;55.62
71291;DHT22;59073;51.994;4.448;2023-05-03T09:58:03;13.28;53.79
71291;DHT22;59073;51.994;4.448;2023-05-03T10:00:35;13.50;55.22
71291;DHT22;59073;51.994;4.448;2023-05-03T10:03:09;13.36;55.54
71291;DHT22;59073;51.994;4.448;2023-05-03T10:05:46;13.55;55.29
71291;DHT22;59073;51.994;4.448;2023-05-03T10:08:21;13.14;56.54
71291;DHT22;59073;51.994;4.448;2023-05-03T10:10:50;12.95;57.43
71291;DHT22;59073;51.994;4.448;2023-05-03T10:13:21;13.60;54.66
71291;DHT22;59073;51.994;4.448;2023-05-03T10:15:53;13.11;56.00
71291;DHT22;59073;51.994;4.448;2023-05-03T10:18:25;13.73;55.96
71291;DHT22;59073;51.994;4.448;2023-05-03T10:21:01;13.96;52.83
71291;DHT22;59073;51.994;4.448;2023-05-03T10:23:28;14.04;55.05
71291;DHT22;59073;51.994;4.448;2023-05-03T10:28:36;14.10;52.98
71291;DHT22;59073;51.994;4.448;2023-05-03T10:31:01;13.99;53.79
71291;DHT22;59073;51.994;4.448;2023-05-03T10:33:31;13.50;56.26
71291;DHT22;59073;51.994;4.448;2023-05-03T10:36:06;13.79;53.93
71291;DHT22;59073;51.994;4.448;2023-05-03T10:38:32;13.79;58.01
71291;DHT22;59073;51.994;4.448;2023-05-03T10:40:58;14.49;54.32
71291;DHT22;59073;51.994;4.448;2023-05-03T10:46:01;14.31;54.77
71291;DHT22;59073;51.994;4.448;2023-05-03T10:48:28;14.34;52.19
71291;DHT22;59073;51.994;4.448;2023-05-03T10:50:55;14.37;54.05
71291;DHT22;59073;51.994;4.448;2023-05-03T10:56:03;14.01;52.71
71291;DHT22;59073;51.994;4.448;2023-05-03T10:58:35;13.43;53.44
71291;DHT22;59073;51.994;4.448;2023-05-03T11:01:04;13.67;55.51
71291;DHT22;59073;51.994;4.448;2023-05-03T11:03:54;13.46;55.22
71291;DHT22;59073;51.994;4.448;2023-05-03T11:06:34;13.66;54.38
71291;DHT22;59073;51.994;4.448;2023-05-03T11:09:01;13.96;53.55
71291;DHT22;59073;51.994;4.448;2023-05-03T11:11:28;14.40;52.08
71291;DHT22;59073;51.994;4.448;2023-05-03T11:13:54;14.68;53.24
71291;DHT22;59073;51.994;4.448;2023-05-03T11:16:19;14.57;52.91
71291;DHT22;59073;51.994;4.448;2023-05-03T11:18:46;14.01;54.06
71291;DHT22;59073;51.994;4.448;2023-05-03T11:21:13;14.09;54.63
71291;DHT22;59073;51.994;4.448;2023-05-03T11:23:40;14.41;53.61
71291;DHT22;59073;51.994;4.448;2023-05-03T11:26:06;14.59;52.79
71291;DHT22;59073;51.994;4.448;2023-05-03T11:28:32;13.94;53.46
71291;DHT22;59073;51.994;4.448;2023-05-03T11:30:57;14.48;54.02
71291;DHT22;59073;51.994;4.448;2023-05-03T11:33:23;14.88;52.17
71291;DHT22;59073;51.994;4.448;2023-05-03T11:35:48;15.12;50.66
71291;DHT22;59073;51.994;4.448;2023-05-03T11:38:14;15.04;51.04
71291;DHT22;59073;51.994;4.448;2023-05-03T11:40:39;14.95;52.45
71291;DHT22;59073;51.994;4.448;2023-05-03T11:43:05;14.07;52.78
71291;DHT22;59073;51.994;4.448;2023-05-03T11:45:40;13.93;54.76
71291;DHT22;59073;51.994;4.448;2023-05-03T11:48:09;14.21;52.90
71291;DHT22;59073;51.994;4.448;2023-05-03T11:51:05;14.59;54.10
71291;DHT22;59073;51.994;4.448;2023-05-03T11:53:32;14.51;52.95
71291;DHT22;59073;51.994;4.448;2023-05-03T11:55:59;14.78;51.75
71291;DHT22;59073;51.994;4.448;2023-05-03T11:58:25;14.59;50.81
71291;DHT22;59073;51.994;4.448;2023-05-03T12:00:53;14.75;52.49
71291;DHT22;59073;51.994;4.448;2023-05-03T12:03:20;14.61;52.41
71291;DHT22;59073;51.994;4.448;2023-05-03T12:05:47;14.22;52.15
71291;DHT22;59073;51.994;4.448;2023-05-03T12:08:13;14.21;55.29
71291;DHT22;59073;51.994;4.448;2023-05-03T12:10:40;14.69;51.57
71291;DHT22;59073;51.994;4.448;2023-05-03T12:13:06;15.26;56.21
71291;DHT22;59073;51.994;4.448;2023-05-03T12:15:34;14.42;52.96
71291;DHT22;59073;51.994;4.448;2023-05-03T12:18:05;14.64;51.46
71291;DHT22;59073;51.994;4.448;2023-05-03T12:20:34;14.83;54.69
71291;DHT22;59073;51.994;4.448;2023-05-03T12:23:05;14.52;53.69
71291;DHT22;59073;51.994;4.448;2023-05-03T12:25:35;14.78;51.07
71291;DHT22;59073;51.994;4.448;2023-05-03T12:28:03;15.09;54.48
71291;DHT22;59073;51.994;4.448;2023-05-03T12:30:29;15.27;48.98
71291;DHT22;59073;51.994;4.448;2023-05-03T12:32:54;15.12;50.36
71291;DHT22;59073;51.994;4.448;2023-05-03T12:35:21;15.10;52.81
71291;DHT22;59073;51.994;4.448;2023-05-03T12:37:47;14.98;53.79
71291;DHT22;59073;51.994;4.448;2023-05-03T12:40:14;15.34;50.15
71291;DHT22;59073;51.994;4.448;2023-05-03T12:42:41;15.20;54.55
71291;DHT22;59073;51.994;4.448;2023-05-03T12:45:07;14.93;55.23
71291;DHT22;59073;51.994;4.448;2023-05-03T12:47:33;14.49;55.35
71291;DHT22;59073;51.994;4.448;2023-05-03T12:49:59;14.67;52.35
71291;DHT22;59073;51.994;4.448;2023-05-03T12:52:25;14.61;55.46
71291;DHT22;59073;51.994;4.448;2023-05-03T12:54:51;14.67;51.71
71291;DHT22;59073;51.994;4.448;2023-05-03T12:57:17;14.99;53.37
71291;DHT22;59073;51.994;4.448;2023-05-03T12:59:42;15.34;51.48
71291;DHT22;59073;51.994;4.448;2023-05-03T13:02:09;15.22;53.23
71291;DHT22;59073;51.994;4.448;2023-05-03T13:04:35;15.37;52.15
71291;DHT22;59073;51.994;4.448;2023-05-03T13:07:01;15.04;49.51
71291;DHT22;59073;51.994;4.448;2023-05-03T13:09:27;14.86;51.43
71291;DHT22;59073;51.994;4.448;2023-05-03T13:11:52;15.12;51.92
71291;DHT22;59073;51.994;4.448;2023-05-03T13:14:20;14.92;51.72
71291;DHT22;59073;51.994;4.448;2023-05-03T13:16:46;15.41;51.01
71291;DHT22;59073;51.994;4.448;2023-05-03T13:19:14;15.50;49.52
71291;DHT22;59073;51.994;4.448;2023-05-03T13:21:40;15.24;52.11
71291;DHT22;59073;51.994;4.448;2023-05-03T13:24:06;15.18;48.47
71291;DHT22;59073;51.994;4.448;2023-05-03T13:26:31;15.30;51.49
71291;DHT22;59073;51.994;4.448;2023-05-03T13:29:00;15.47;51.47
71291;DHT22;59073;51.994;4.448;2023-05-03T13:31:26;15.54;52.69
71291;DHT22;59073;51.994;4.448;2023-05-03T13:33:53;15.40;50.13
71291;DHT22;59073;51.994;4.448;2023-05-03T13:36:19;15.41;50.51
71291;DHT22;59073;51.994;4.448;2023-05-03T13:38:47;15.23;52.64
71291;DHT22;59073;51.994;4.448;2023-05-03T13:41:13;15.26;50.91
71291;DHT22;59073;51.994;4.448;2023-05-03T13:43:38;15.22;51.69
71291;DHT22;59073;51.994;4.448;2023-05-03T13:46:06;15.51;50.09
71291;DHT22;59073;51.994;4.448;2023-05-03T13:48:32;15.46;52.55
71291;DHT22;59073;51.994;4.448;2023-05-03T13:50:57;15.47;51.09
71291;DHT22;59073;51.994;4.448;2023-05-03T13:53:22;15.37;49.69
71291;DHT22;59073;51.994;4.448;2023-05-03T13:55:48;15.16;50.37
71291;DHT22;59073;51.994;4.448;2023-05-03T13:58:13;15.10;50.71
71291;DHT22;59073;51.994;4.448;2023-05-03T14:00:38;15.13;50.23
71291;DHT22;59073;51.994;4.448;2023-05-03T14:03:04;15.20;52.61
71291;DHT22;59073;51.994;4.448;2023-05-03T14:05:31;15.02;50.95
71291;DHT22;59073;51.994;4.448;2023-05-03T14:07:57;14.99;51.95
71291;DHT22;59073;51.994;4.448;2023-05-03T14:10:23;15.23;52.61
71291;DHT22;59073;51.994;4.448;2023-05-03T14:12:48;15.30;54.73
71291;DHT22;59073;51.994;4.448;2023-05-03T14:15:14;15.02;54.41
71291;DHT22;59073;51.994;4.448;2023-05-03T14:17:40;15.04;52.44
71291;DHT22;59073;51.994;4.448;2023-05-03T14:20:08;15.12;52.51
71291;DHT22;59073;51.994;4.448;2023-05-03T14:22:36;14.92;54.29
71291;DHT22;59073;51.994;4.448;2023-05-03T14:25:01;15.03;54.73
71291;DHT22;59073;51.994;4.448;2023-05-03T14:27:27;15.18;53.85
71291;DHT22;59073;51.994;4.448;2023-05-03T14:29:52;15.30;53.72
71291;DHT22;59073;51.994;4.448;2023-05-03T14:32:20;15.06;53.66
71291;DHT22;59073;51.994;4.448;2023-05-03T14:34:46;15.12;54.64
71291;DHT22;59073;51.994;4.448;2023-05-03T14:37:12;15.24;54.93
71291;DHT22;59073;51.994;4.448;2023-05-03T14:39:37;15.41;55.43
71291;DHT22;59073;51.994;4.448;2023-05-03T14:42:03;15.31;53.37
71291;DHT22;59073;51.994;4.448;2023-05-03T14:44:28;15.53;55.77
71291;DHT22;59073;51.994;4.448;2023-05-03T14:46:54;15.31;54.36
71291;DHT22;59073;51.994;4.448;2023-05-03T14:49:26;15.12;53.45
71291;DHT22;59073;51.994;4.448;2023-05-03T14:51:51;15.02;57.09
71291;DHT22;59073;51.994;4.448;2023-05-03T14:54:16;15.20;57.53
71291;DHT22;59073;51.994;4.448;2023-05-03T14:56:44;15.16;53.98
71291;DHT22;59073;51.994;4.448;2023-05-03T14:59:09;14.90;54.49
71291;DHT22;59073;51.994;4.448;2023-05-03T15:01:34;14.99;55.07
71291;DHT22;59073;51.994;4.448;2023-05-03T15:04:02;15.18;56.01
71291;DHT22;59073;51.994;4.448;2023-05-03T15:06:35;15.14;54.68
71291;DHT22;59073;51.994;4.448;2023-05-03T15:09:05;15.16;56.23
71291;DHT22;59073;51.994;4.448;2023-05-03T15:11:32;15.00;56.74
71291;DHT22;59073;51.994;4.448;2023-05-03T15:13:58;14.98;57.21
71291;DHT22;59073;51.994;4.448;2023-05-03T15:16:23;15.10;54.57
71291;DHT22;59073;51.994;4.448;2023-05-03T15:18:49;15.12;54.75
71291;DHT22;59073;51.994;4.448;2023-05-03T15:21:17;15.03;54.20
71291;DHT22;59073;51.994;4.448;2023-05-03T15:23:43;15.13;54.74
71291;DHT22;59073;51.994;4.448;2023-05-03T15:26:09;15.22;54.47
71291;DHT22;59073;51.994;4.448;2023-05-03T15:28:35;15.03;56.26
71291;DHT22;59073;51.994;4.448;2023-05-03T15:31:00;14.99;53.88
71291;DHT22;59073;51.994;4.448;2023-05-03T15:33:26;14.79;56.31
71291;DHT22;59073;51.994;4.448;2023-05-03T15:35:51;14.95;55.44
71291;DHT22;59073;51.994;4.448;2023-05-03T15:38:16;14.95;58.57
71291;DHT22;59073;51.994;4.448;2023-05-03T15:40:42;14.82;55.87
71291;DHT22;59073;51.994;4.448;2023-05-03T15:43:08;15.00;55.65
71291;DHT22;59073;51.994;4.448;2023-05-03T15:45:34;14.99;55.79
71291;DHT22;59073;51.994;4.448;2023-05-03T15:47:59;14.85;54.53
71291;DHT22;59073;51.994;4.448;2023-05-03T15:50:26;14.86;55.74